createdAt,value
2016-07-14T00:00:57.581Z,99.99
2016-07-14T00:01:56.874Z,99.99
2016-07-14T00:02:56.876Z,99.99
2016-07-14T00:03:56.876Z,99.99
2016-07-14T00:04:56.873Z,99.99
2016-07-14T00:05:56.871Z,99.99
2016-07-14T00:06:56.865Z,99.99
2016-07-14T00:07:56.874Z,99.99
2016-07-14T00:08:56.864Z,99.99
2016-07-14T00:09:56.863Z,99.99
2016-07-14T00:10:56.860Z,99.99
2016-07-14T00:11:56.862Z,99.99
2016-07-14T00:12:56.857Z,99.99
2016-07-14T00:13:56.852Z,99.99
2016-07-14T00:14:56.851Z,99.99
2016-07-14T00:15:56.847Z,99.99
2016-07-14T00:16:56.844Z,99.99
2016-07-14T00:17:56.843Z,99.99
2016-07-14T00:18:56.839Z,99.99
2016-07-14T00:19:56.838Z,99.99
2016-07-14T00:20:56.837Z,99.99
2016-07-14T00:21:56.836Z,99.99
2016-07-14T00:22:56.835Z,99.99
2016-07-14T00:23:56.831Z,99.99
2016-07-14T00:24:56.827Z,99.99
2016-07-14T00:25:56.824Z,99.99
2016-07-14T00:26:56.824Z,99.99
2016-07-14T00:27:56.823Z,99.99
2016-07-14T00:28:56.819Z,99.99
2016-07-14T00:29:56.818Z,99.99
2016-07-14T00:30:56.814Z,99.99
2016-07-14T00:31:56.812Z,99.99
2016-07-14T00:32:56.811Z,99.99
2016-07-14T00:33:56.807Z,99.99
2016-07-14T00:34:56.804Z,99.99
2016-07-14T00:35:56.806Z,99.99
2016-07-14T00:36:56.805Z,99.99
2016-07-14T00:37:56.799Z,99.99
2016-07-14T00:38:56.798Z,99.99
2016-07-14T00:39:56.804Z,99.99
2016-07-14T00:40:56.793Z,99.99
2016-07-14T00:41:56.786Z,99.99
2016-07-14T00:42:56.795Z,99.99
2016-07-14T00:43:56.783Z,99.99
2016-07-14T00:44:56.786Z,99.99
2016-07-14T00:45:56.782Z,99.99
2016-07-14T00:46:56.780Z,99.99
2016-07-14T00:47:56.780Z,99.99
2016-07-14T00:48:57.674Z,99.99
2016-07-14T00:49:57.421Z,99.99
2016-07-14T00:50:57.370Z,99.99
2016-07-14T00:51:56.772Z,99.99
2016-07-14T00:53:11.684Z,99.99
2016-07-14T00:53:56.761Z,99.99
2016-07-14T00:54:57.163Z,99.99
2016-07-14T00:55:56.762Z,99.99
2016-07-14T00:56:56.758Z,99.99
2016-07-14T00:57:56.754Z,99.99
2016-07-14T00:58:57.401Z,99.99
2016-07-14T00:59:57.986Z,99.99
2016-07-14T01:00:57.932Z,99.99
2016-07-14T01:01:57.964Z,99.99
2016-07-14T01:03:56.743Z,99.99
2016-07-14T01:04:56.743Z,99.99
2016-07-14T01:05:56.739Z,99.99
2016-07-14T01:06:56.734Z,99.99
2016-07-14T01:07:57.614Z,99.99
2016-07-14T01:08:56.729Z,99.99
2016-07-14T01:09:56.727Z,99.99
2016-07-14T01:10:56.724Z,99.99
2016-07-14T01:11:56.724Z,99.99
2016-07-14T01:12:56.720Z,99.99
2016-07-14T01:13:56.720Z,99.99
2016-07-14T01:14:56.715Z,99.99
2016-07-14T01:15:56.713Z,99.99
2016-07-14T01:16:56.712Z,99.99
2016-07-14T01:17:56.707Z,99.99
2016-07-14T01:18:56.707Z,99.99
2016-07-14T01:19:56.755Z,99.99
2016-07-14T01:20:56.701Z,99.99
2016-07-14T01:21:56.697Z,99.99
2016-07-14T01:22:56.695Z,99.99
2016-07-14T01:23:56.695Z,99.99
2016-07-14T01:24:56.693Z,99.99
2016-07-14T01:25:56.688Z,99.99
2016-07-14T01:26:56.684Z,99.99
2016-07-14T01:27:56.684Z,99.99
2016-07-14T01:28:56.683Z,99.99
2016-07-14T01:29:56.682Z,99.99
2016-07-14T01:30:56.678Z,99.99
2016-07-14T01:31:56.681Z,99.99
2016-07-14T01:32:56.671Z,99.99
2016-07-14T01:33:56.666Z,99.99
2016-07-14T01:34:56.674Z,99.99
2016-07-14T01:35:56.662Z,99.99
2016-07-14T01:36:56.661Z,99.99
2016-07-14T01:37:56.656Z,99.99
2016-07-14T01:38:56.656Z,99.99
2016-07-14T01:39:56.654Z,99.99
2016-07-14T01:40:56.652Z,99.99
2016-07-14T01:41:56.647Z,99.99
2016-07-14T01:42:56.647Z,99.99
2016-07-14T01:43:56.644Z,99.99
2016-07-14T01:44:56.642Z,99.99
2016-07-14T01:45:56.644Z,99.99
2016-07-14T01:46:56.633Z,99.99
2016-07-14T01:47:56.632Z,99.99
2016-07-14T01:48:56.635Z,99.99
2016-07-14T01:49:56.632Z,99.99
2016-07-14T01:50:56.636Z,99.99
2016-07-14T01:51:56.629Z,99.99
2016-07-14T01:52:56.624Z,99.99
2016-07-14T01:53:56.618Z,99.99
2016-07-14T01:54:56.616Z,99.99
2016-07-14T01:55:56.614Z,99.99
2016-07-14T01:56:56.625Z,99.99
2016-07-14T01:57:56.608Z,99.99
2016-07-14T01:58:56.606Z,99.99
2016-07-14T01:59:56.612Z,99.99
2016-07-14T02:00:56.603Z,99.99
2016-07-14T02:01:56.602Z,99.99
2016-07-14T02:02:56.595Z,99.99
2016-07-14T02:03:56.600Z,99.99
2016-07-14T02:04:56.595Z,99.99
2016-07-14T02:05:56.592Z,99.99
2016-07-14T02:06:56.838Z,99.99
2016-07-14T02:07:56.635Z,99.99
2016-07-14T02:09:56.584Z,99.99
2016-07-14T02:10:56.631Z,99.99
2016-07-14T02:11:56.579Z,99.99
2016-07-14T02:12:56.575Z,99.99
2016-07-14T02:13:56.768Z,99.99
2016-07-14T02:14:56.570Z,99.99
2016-07-14T02:15:56.565Z,99.99
2016-07-14T02:16:56.563Z,99.99
2016-07-14T02:17:56.765Z,99.99
2016-07-14T02:18:57.108Z,99.99
2016-07-14T02:19:57.457Z,99.99
2016-07-14T02:20:56.550Z,99.99
2016-07-14T02:21:57.161Z,99.99
2016-07-14T02:22:56.553Z,99.99
2016-07-14T02:23:56.544Z,99.99
2016-07-14T02:24:56.544Z,99.99
2016-07-14T02:25:56.541Z,99.99
2016-07-14T02:26:56.919Z,99.99
2016-07-14T02:27:56.694Z,99.99
2016-07-14T02:28:56.535Z,99.99
2016-07-14T02:29:56.536Z,99.99
2016-07-14T02:30:56.528Z,99.99
2016-07-14T02:31:56.525Z,99.99
2016-07-14T02:32:56.527Z,99.99
2016-07-14T02:33:56.524Z,99.99
2016-07-14T02:34:56.517Z,99.99
2016-07-14T02:35:56.512Z,99.99
2016-07-14T02:36:56.514Z,99.99
2016-07-14T02:37:56.511Z,99.99
2016-07-14T02:38:56.504Z,99.99
2016-07-14T02:39:56.505Z,99.99
2016-07-14T02:40:56.504Z,99.99
2016-07-14T02:41:56.497Z,99.99
2016-07-14T02:42:56.498Z,99.99
2016-07-14T02:43:56.492Z,99.99
2016-07-14T02:44:56.489Z,99.99
2016-07-14T02:45:56.491Z,99.99
2016-07-14T02:46:56.487Z,99.99
2016-07-14T02:47:56.481Z,99.99
2016-07-14T02:48:56.479Z,99.99
2016-07-14T02:49:56.479Z,99.99
2016-07-14T02:50:56.473Z,99.99
2016-07-14T02:51:56.473Z,99.99
2016-07-14T02:52:56.475Z,99.99
2016-07-14T02:53:56.471Z,99.99
2016-07-14T02:54:56.469Z,99.99
2016-07-14T02:55:56.463Z,99.99
2016-07-14T02:56:56.457Z,99.99
2016-07-14T02:57:56.455Z,99.99
2016-07-14T02:58:56.451Z,99.99
2016-07-14T02:59:56.455Z,99.99
2016-07-14T03:00:56.453Z,99.99
2016-07-14T03:01:56.448Z,99.99
2016-07-14T03:02:56.443Z,99.99
2016-07-14T03:03:56.438Z,99.99
2016-07-14T03:04:56.440Z,99.99
2016-07-14T03:05:56.434Z,99.99
2016-07-14T03:06:56.432Z,99.99
2016-07-14T03:07:56.430Z,99.99
2016-07-14T03:08:56.430Z,99.99
2016-07-14T03:09:56.427Z,99.99
2016-07-14T03:10:56.421Z,99.99
2016-07-14T03:11:56.419Z,99.99
2016-07-14T03:12:56.417Z,99.99
2016-07-14T03:13:56.413Z,99.99
2016-07-14T03:14:56.411Z,99.99
2016-07-14T03:15:56.408Z,99.99
2016-07-14T03:16:56.410Z,99.99
2016-07-14T03:17:56.407Z,99.99
2016-07-14T03:18:56.402Z,99.99
2016-07-14T03:19:56.452Z,99.99
2016-07-14T03:20:56.394Z,99.99
2016-07-14T03:21:56.398Z,99.99
2016-07-14T03:22:56.391Z,99.99
2016-07-14T03:23:56.388Z,99.99
2016-07-14T03:24:56.387Z,99.99
2016-07-14T03:25:56.435Z,99.99
2016-07-14T03:26:56.730Z,99.99
2016-07-14T03:27:56.380Z,99.99
2016-07-14T03:28:56.375Z,99.99
2016-07-14T03:29:56.371Z,99.99
2016-07-14T03:30:56.367Z,99.99
2016-07-14T03:31:56.367Z,99.99
2016-07-14T03:32:56.362Z,99.99
2016-07-14T03:33:57.211Z,99.99
2016-07-14T03:34:56.360Z,99.99
2016-07-14T03:35:57.865Z,99.99
2016-07-14T03:36:57.340Z,99.99
2016-07-14T03:37:56.750Z,99.99
2016-07-14T03:38:57.440Z,99.99
2016-07-14T03:39:56.346Z,99.99
2016-07-14T03:40:57.046Z,99.99
2016-07-14T03:41:56.343Z,99.99
2016-07-14T03:42:56.336Z,99.99
2016-07-14T03:43:56.333Z,99.99
2016-07-14T03:44:56.329Z,99.99
2016-07-14T03:45:56.398Z,99.99
2016-07-14T03:46:57.009Z,99.99
2016-07-14T03:47:56.326Z,99.99
2016-07-14T03:48:56.906Z,99.99
2016-07-14T03:49:56.726Z,99.99
2016-07-14T03:50:56.319Z,99.99
2016-07-14T03:51:56.316Z,99.99
2016-07-14T03:52:56.311Z,99.99
2016-07-14T03:53:56.306Z,99.99
2016-07-14T03:54:56.306Z,99.99
2016-07-14T03:55:56.299Z,99.99
2016-07-14T03:56:56.303Z,99.99
2016-07-14T03:57:56.296Z,99.99
2016-07-14T03:58:56.292Z,99.99
2016-07-14T03:59:56.290Z,99.99
2016-07-14T04:00:56.291Z,99.99
2016-07-14T04:01:56.289Z,99.99
2016-07-14T04:02:56.282Z,99.99
2016-07-14T04:03:56.280Z,99.99
2016-07-14T04:04:56.280Z,99.99
2016-07-14T04:05:56.280Z,99.99
2016-07-14T04:06:56.274Z,99.99
2016-07-14T04:07:56.267Z,99.99
2016-07-14T04:08:56.267Z,99.99
2016-07-14T04:09:56.263Z,99.99
2016-07-14T04:10:56.261Z,99.99
2016-07-14T04:11:56.263Z,99.99
2016-07-14T04:12:56.261Z,99.99
2016-07-14T04:13:56.255Z,99.99
2016-07-14T04:14:56.250Z,99.99
2016-07-14T04:15:56.252Z,99.99
2016-07-14T04:16:56.251Z,99.99
2016-07-14T04:17:56.245Z,99.99
2016-07-14T04:18:56.241Z,99.99
2016-07-14T04:19:56.243Z,99.99
2016-07-14T04:20:56.237Z,99.99
2016-07-14T04:21:56.235Z,99.99
2016-07-14T04:22:56.237Z,99.99
2016-07-14T04:23:56.227Z,99.99
2016-07-14T04:24:56.225Z,99.99
2016-07-14T04:25:56.225Z,99.99
2016-07-14T04:26:56.224Z,99.99
2016-07-14T04:27:56.217Z,99.99
2016-07-14T04:28:56.215Z,99.99
2016-07-14T04:29:56.213Z,99.99
2016-07-14T04:30:56.216Z,99.99
2016-07-14T04:31:56.209Z,99.99
2016-07-14T04:32:56.205Z,99.99
2016-07-14T04:33:56.206Z,99.99
2016-07-14T04:34:56.204Z,99.99
2016-07-14T04:35:56.199Z,99.99
2016-07-14T04:36:56.202Z,99.99
2016-07-14T04:37:56.195Z,99.99
2016-07-14T04:38:56.195Z,99.99
2016-07-14T04:39:56.191Z,99.99
2016-07-14T04:40:56.187Z,99.99
2016-07-14T04:41:56.190Z,99.99
2016-07-14T04:42:56.183Z,99.99
2016-07-14T04:43:56.188Z,99.99
2016-07-14T04:44:56.175Z,99.99
2016-07-14T04:45:56.628Z,99.99
2016-07-14T04:46:56.175Z,99.99
2016-07-14T04:47:56.170Z,99.99
2016-07-14T04:48:56.171Z,99.99
2016-07-14T04:49:56.170Z,99.99
2016-07-14T04:50:56.164Z,99.99
2016-07-14T04:51:56.167Z,99.99
2016-07-14T04:52:57.414Z,99.99
2016-07-14T04:53:56.412Z,99.99
2016-07-14T04:54:58.266Z,99.99
2016-07-14T04:55:56.355Z,99.99
2016-07-14T04:56:56.149Z,99.99
2016-07-14T04:57:56.148Z,99.99
2016-07-14T04:58:56.659Z,99.99
2016-07-14T04:59:56.343Z,99.99
2016-07-14T05:00:56.142Z,99.99
2016-07-14T05:01:56.137Z,99.99
2016-07-14T05:02:57.656Z,99.99
2016-07-14T05:03:56.137Z,99.99
2016-07-14T05:04:56.204Z,99.99
2016-07-14T05:05:56.130Z,99.99
2016-07-14T05:06:56.128Z,99.99
2016-07-14T05:07:56.128Z,99.99
2016-07-14T05:08:56.138Z,99.99
2016-07-14T05:09:56.122Z,99.99
2016-07-14T05:10:56.121Z,99.99
2016-07-14T05:11:56.112Z,99.99
2016-07-14T05:12:56.114Z,99.99
2016-07-14T05:13:56.114Z,99.99
2016-07-14T05:14:56.111Z,99.99
2016-07-14T05:15:56.102Z,99.99
2016-07-14T05:16:56.108Z,99.99
2016-07-14T05:17:56.099Z,99.99
2016-07-14T05:18:56.103Z,99.99
2016-07-14T05:19:56.150Z,99.99
2016-07-14T05:20:56.095Z,99.99
2016-07-14T05:21:56.091Z,99.99
2016-07-14T05:22:56.099Z,99.99
2016-07-14T05:23:56.090Z,99.99
2016-07-14T05:25:56.088Z,99.99
2016-07-14T05:26:56.079Z,99.99
2016-07-14T05:27:56.080Z,99.99
2016-07-14T05:28:56.078Z,99.99
2016-07-14T05:29:56.079Z,99.99
2016-07-14T05:30:56.067Z,99.99
2016-07-14T05:31:56.072Z,99.99
2016-07-14T05:32:56.065Z,99.99
2016-07-14T05:33:56.066Z,99.99
2016-07-14T05:34:56.064Z,99.99
2016-07-14T05:35:56.065Z,99.99
2016-07-14T05:36:56.062Z,99.99
2016-07-14T05:37:56.054Z,99.99
2016-07-14T05:38:56.050Z,99.99
2016-07-14T05:39:56.051Z,99.99
2016-07-14T05:40:56.053Z,99.99
2016-07-14T05:41:56.046Z,99.99
2016-07-14T05:42:56.047Z,99.99
2016-07-14T05:43:56.042Z,99.99
2016-07-14T05:44:56.039Z,99.99
2016-07-14T05:45:56.043Z,99.99
2016-07-14T05:46:56.035Z,99.99
2016-07-14T05:47:56.033Z,99.99
2016-07-14T05:48:56.034Z,99.99
2016-07-14T05:49:56.030Z,99.99
2016-07-14T05:50:56.029Z,99.99
2016-07-14T05:51:56.028Z,99.99
2016-07-14T05:52:56.025Z,99.99
2016-07-14T05:53:56.023Z,99.99
2016-07-14T05:54:56.020Z,99.99
2016-07-14T05:55:56.020Z,99.99
2016-07-14T05:56:56.021Z,99.99
2016-07-14T05:57:56.018Z,99.99
2016-07-14T05:58:56.011Z,99.99
2016-07-14T05:59:56.013Z,99.99
2016-07-14T06:00:56.707Z,99.99
2016-07-14T06:01:57.258Z,99.99
2016-07-14T06:02:56.405Z,99.99
2016-07-14T06:03:55.998Z,99.99
2016-07-14T06:04:56.003Z,99.99
2016-07-14T06:05:55.997Z,99.99
2016-07-14T06:06:56.302Z,99.99
2016-07-14T06:07:55.996Z,99.99
2016-07-14T06:08:55.992Z,99.99
2016-07-14T06:09:55.993Z,99.99
2016-07-14T06:10:55.987Z,99.99
2016-07-14T06:11:56.086Z,99.99
2016-07-14T06:12:57.506Z,99.99
2016-07-14T06:13:56.880Z,99.99
2016-07-14T06:14:57.138Z,99.99
2016-07-14T06:15:56.278Z,99.99
2016-07-14T06:16:56.475Z,99.99
2016-07-14T06:17:55.972Z,99.99
2016-07-14T06:18:55.971Z,99.99
2016-07-14T06:19:55.970Z,99.99
2016-07-14T06:20:56.408Z,99.99
2016-07-14T06:21:55.965Z,99.99
2016-07-14T06:22:55.971Z,99.99
2016-07-14T06:23:56.419Z,99.99
2016-07-14T06:24:55.968Z,99.99
2016-07-14T06:25:56.689Z,99.99
2016-07-14T06:26:55.959Z,99.99
2016-07-14T06:27:55.959Z,99.99
2016-07-14T06:28:55.955Z,99.99
2016-07-14T06:29:55.953Z,99.99
2016-07-14T06:30:55.962Z,99.99
2016-07-14T06:31:55.965Z,99.99
2016-07-14T06:32:56.654Z,99.99
2016-07-14T06:33:55.953Z,99.99
2016-07-14T06:34:55.947Z,99.99
2016-07-14T06:35:55.942Z,99.99
2016-07-14T06:36:55.945Z,99.99
2016-07-14T06:37:55.939Z,99.99
2016-07-14T06:38:55.941Z,99.99
2016-07-14T06:39:55.943Z,99.99
2016-07-14T06:40:55.939Z,99.99
2016-07-14T06:41:55.939Z,99.99
2016-07-14T06:42:55.931Z,99.99
2016-07-14T06:43:55.935Z,99.99
2016-07-14T06:44:55.931Z,99.99
2016-07-14T06:45:55.926Z,99.99
2016-07-14T06:46:55.927Z,99.99
2016-07-14T06:47:55.932Z,99.99
2016-07-14T06:48:55.926Z,99.99
2016-07-14T06:49:55.923Z,99.99
2016-07-14T06:50:55.916Z,99.99
2016-07-14T06:51:55.920Z,99.99
2016-07-14T06:52:55.917Z,99.99
2016-07-14T06:53:55.912Z,99.99
2016-07-14T06:54:55.915Z,99.99
2016-07-14T06:55:55.910Z,99.99
2016-07-14T06:56:55.913Z,99.99
2016-07-14T06:57:55.911Z,99.99
2016-07-14T06:58:55.908Z,99.99
2016-07-14T06:59:55.906Z,99.99
2016-07-14T07:00:55.907Z,99.99
2016-07-14T07:01:55.902Z,99.99
2016-07-14T07:02:55.899Z,99.99
2016-07-14T07:03:55.898Z,99.99
2016-07-14T07:04:55.914Z,99.99
2016-07-14T07:05:55.897Z,99.99
2016-07-14T07:06:55.894Z,99.99
2016-07-14T07:07:55.897Z,99.99
2016-07-14T07:08:55.894Z,99.99
2016-07-14T07:09:55.896Z,99.99
2016-07-14T07:10:55.894Z,99.99
2016-07-14T07:11:55.893Z,99.99
2016-07-14T07:12:55.891Z,99.99
2016-07-14T07:13:55.886Z,99.99
2016-07-14T07:14:55.887Z,99.99
2016-07-14T07:15:55.887Z,99.99
2016-07-14T07:16:55.879Z,99.99
2016-07-14T07:17:55.879Z,99.99
2016-07-14T07:18:55.883Z,99.99
2016-07-14T07:19:56.225Z,99.99
2016-07-14T07:20:56.229Z,99.99
2016-07-14T07:21:55.881Z,99.99
2016-07-14T07:22:55.873Z,99.99
2016-07-14T07:24:10.788Z,99.99
2016-07-14T07:24:55.870Z,99.99
2016-07-14T07:25:55.868Z,99.99
2016-07-14T07:26:55.866Z,99.99
2016-07-14T07:27:55.869Z,99.99
2016-07-14T07:29:10.785Z,99.99
2016-07-14T07:30:56.427Z,99.99
2016-07-14T07:31:56.673Z,99.99
2016-07-14T07:32:57.286Z,99.99
2016-07-14T07:33:55.858Z,99.99
2016-07-14T07:34:55.859Z,99.99
2016-07-14T07:35:55.864Z,99.99
2016-07-14T07:36:55.866Z,99.99
2016-07-14T07:37:55.857Z,99.99
2016-07-14T07:38:55.853Z,99.99
2016-07-14T07:39:56.845Z,99.99
2016-07-14T07:40:57.090Z,99.99
2016-07-14T07:41:57.128Z,99.99
2016-07-14T07:42:55.851Z,99.99
2016-07-14T07:43:55.863Z,99.99
2016-07-14T07:44:55.847Z,99.99
2016-07-14T07:45:55.849Z,99.99
2016-07-14T07:46:55.843Z,99.99
2016-07-14T07:47:55.852Z,99.99
2016-07-14T07:48:55.838Z,99.99
2016-07-14T07:49:55.842Z,99.99
2016-07-14T07:50:55.835Z,99.99
2016-07-14T07:51:55.838Z,99.99
2016-07-14T07:52:55.838Z,99.99
2016-07-14T07:53:56.531Z,99.99
2016-07-14T07:54:55.836Z,99.99
2016-07-14T07:55:55.836Z,99.99
2016-07-14T07:56:55.834Z,99.99
2016-07-14T07:57:55.835Z,99.99
2016-07-14T07:58:55.827Z,99.99
2016-07-14T07:59:55.830Z,99.99
2016-07-14T08:00:55.827Z,99.99
2016-07-14T08:01:55.824Z,99.99
2016-07-14T08:02:55.831Z,99.99
2016-07-14T08:03:55.824Z,99.99
2016-07-14T08:04:55.822Z,99.99
2016-07-14T08:05:55.827Z,99.99
2016-07-14T08:06:55.822Z,99.99
2016-07-14T08:07:55.822Z,99.99
2016-07-14T08:08:55.824Z,99.99
2016-07-14T08:09:55.818Z,99.99
2016-07-14T08:10:55.818Z,99.99
2016-07-14T08:11:55.821Z,99.99
2016-07-14T08:12:55.816Z,99.99
2016-07-14T08:13:55.816Z,99.99
2016-07-14T08:14:55.820Z,99.99
2016-07-14T08:15:55.812Z,99.99
2016-07-14T08:16:55.811Z,99.99
2016-07-14T08:17:55.819Z,99.99
2016-07-14T08:18:55.811Z,99.99
2016-07-14T08:19:55.815Z,99.99
2016-07-14T08:20:55.812Z,99.99
2016-07-14T08:21:55.808Z,99.99
2016-07-14T08:22:55.809Z,99.99
2016-07-14T08:23:55.805Z,99.99
2016-07-14T08:24:55.812Z,99.99
2016-07-14T08:25:55.810Z,99.99
2016-07-14T08:26:55.808Z,99.99
2016-07-14T08:27:55.803Z,99.99
2016-07-14T08:28:55.806Z,99.99
2016-07-14T08:29:55.805Z,99.99
2016-07-14T08:30:55.802Z,99.99
2016-07-14T08:31:55.802Z,99.99
2016-07-14T08:32:55.803Z,99.99
2016-07-14T08:33:55.803Z,99.99
2016-07-14T08:34:55.798Z,99.99
2016-07-14T08:35:55.804Z,99.99
2016-07-14T08:36:55.799Z,99.99
2016-07-14T08:37:56.453Z,99.99
2016-07-14T08:40:55.795Z,99.99
2016-07-14T08:41:55.798Z,99.99
2016-07-14T08:42:55.791Z,99.99
2016-07-14T08:43:55.843Z,99.99
2016-07-14T08:44:55.947Z,99.99
2016-07-14T08:45:55.791Z,99.99
2016-07-14T08:46:55.792Z,99.99
2016-07-14T08:47:55.941Z,99.99
2016-07-14T08:49:58.077Z,99.99
2016-07-14T08:50:57.144Z,99.99
2016-07-14T08:51:55.979Z,99.99
2016-07-14T08:52:56.612Z,99.99
2016-07-14T08:53:55.791Z,99.99
2016-07-14T08:54:55.792Z,99.99
2016-07-14T08:55:55.788Z,99.99
2016-07-14T08:56:55.784Z,99.99
2016-07-14T08:57:57.368Z,99.99
2016-07-14T08:58:57.288Z,99.99
2016-07-14T08:59:56.686Z,99.99
2016-07-14T09:00:56.038Z,99.99
2016-07-14T09:01:55.784Z,99.99
2016-07-14T09:02:55.787Z,99.99
2016-07-14T09:03:55.788Z,99.99
2016-07-14T09:04:55.791Z,99.99
2016-07-14T09:05:55.874Z,99.99
2016-07-14T09:06:55.790Z,99.99
2016-07-14T09:07:55.784Z,99.99
2016-07-14T09:08:55.788Z,99.99
2016-07-14T09:09:55.787Z,99.99
2016-07-14T09:10:55.789Z,99.99
2016-07-14T09:11:55.786Z,99.99
2016-07-14T09:12:55.790Z,99.99
2016-07-14T09:13:55.785Z,99.99
2016-07-14T09:14:55.786Z,99.99
2016-07-14T09:15:55.788Z,99.99
2016-07-14T09:16:55.785Z,99.99
2016-07-14T09:17:55.788Z,99.99
2016-07-14T09:18:55.788Z,99.99
2016-07-14T09:19:55.783Z,99.99
2016-07-14T09:20:55.787Z,99.99
2016-07-14T09:21:55.784Z,99.99
2016-07-14T09:22:56.483Z,99.99
2016-07-14T09:23:55.783Z,99.99
2016-07-14T09:24:55.788Z,99.99
2016-07-14T09:25:55.788Z,99.99
2016-07-14T09:26:55.784Z,99.99
2016-07-14T09:27:55.783Z,99.99
2016-07-14T09:28:55.787Z,99.99
2016-07-14T09:29:55.785Z,99.99
2016-07-14T09:30:55.786Z,99.99
2016-07-14T09:31:55.786Z,99.99
2016-07-14T09:32:55.791Z,99.99
2016-07-14T09:33:55.785Z,99.99
2016-07-14T09:34:55.791Z,99.05
2016-07-14T09:35:55.786Z,99.25
2016-07-14T09:36:55.787Z,98.29
2016-07-14T09:37:55.794Z,98.1
2016-07-14T09:38:55.793Z,97.81
2016-07-14T09:39:55.789Z,97.28
2016-07-14T09:40:55.791Z,97.28
2016-07-14T09:41:55.788Z,96.99
2016-07-14T09:42:55.799Z,97.38
2016-07-14T09:43:55.786Z,98.05
2016-07-14T09:44:55.788Z,99.01
2016-07-14T09:45:55.788Z,98.43
2016-07-14T09:46:55.787Z,99.1
2016-07-14T09:47:55.791Z,99.1
2016-07-14T09:48:55.790Z,99.01
2016-07-14T09:49:55.788Z,99.49
2016-07-14T09:50:55.784Z,98.43
2016-07-14T09:51:55.789Z,98.82
2016-07-14T09:52:55.784Z,98.72
2016-07-14T09:53:55.787Z,98.91
2016-07-14T09:54:55.783Z,98.82
2016-07-14T09:55:55.790Z,98.05
2016-07-14T09:56:56.987Z,97.95
2016-07-14T09:57:56.834Z,96.94
2016-07-14T09:58:55.782Z,97.14
2016-07-14T09:59:55.782Z,96.47
2016-07-14T10:00:55.781Z,95.51
2016-07-14T10:01:56.035Z,96.66
2016-07-14T10:02:55.780Z,97.04
2016-07-14T10:03:55.778Z,96.85
2016-07-14T10:04:55.776Z,97.04
2016-07-14T10:06:10.697Z,96.08
2016-07-14T10:06:55.777Z,96.08
2016-07-14T10:07:56.395Z,96.56
2016-07-14T10:08:57.690Z,94.93
2016-07-14T10:09:55.776Z,93.01
2016-07-14T10:10:56.225Z,92.63
2016-07-14T10:11:56.359Z,93.59
2016-07-14T10:12:56.247Z,93.97
2016-07-14T10:13:55.775Z,94.45
2016-07-14T10:14:55.844Z,94.45
2016-07-14T10:15:57.352Z,94.93
2016-07-14T10:16:55.772Z,93.49
2016-07-14T10:17:57.285Z,91.57
2016-07-14T10:18:55.776Z,91.48
2016-07-14T10:19:56.140Z,91
2016-07-14T10:20:55.769Z,90.61
2016-07-14T10:21:55.768Z,88.89
2016-07-14T10:22:55.767Z,87.84
2016-07-14T10:23:55.766Z,87.55
2016-07-14T10:24:55.772Z,88.51
2016-07-14T10:25:55.767Z,90.9
2016-07-14T10:26:55.765Z,91.19
2016-07-14T10:27:55.766Z,90.71
2016-07-14T10:28:55.759Z,91.28
2016-07-14T10:29:55.763Z,90.9
2016-07-14T10:30:55.761Z,89.47
2016-07-14T10:31:55.759Z,89.47
2016-07-14T10:32:55.757Z,88.6
2016-07-14T10:33:55.766Z,89.13
2016-07-14T10:34:55.756Z,88.94
2016-07-14T10:35:55.758Z,89.04
2016-07-14T10:36:55.755Z,90.09
2016-07-14T10:37:55.758Z,90.86
2016-07-14T10:38:55.751Z,90.47
2016-07-14T10:39:55.762Z,89.8
2016-07-14T10:40:55.747Z,89.61
2016-07-14T10:41:55.753Z,89.47
2016-07-14T10:42:55.755Z,89.86
2016-07-14T10:43:55.750Z,90.72
2016-07-14T10:44:55.744Z,91.39
2016-07-14T10:45:55.750Z,92.63
2016-07-14T10:46:55.752Z,93.11
2016-07-14T10:47:55.742Z,94.17
2016-07-14T10:48:55.739Z,94.55
2016-07-14T10:49:55.742Z,94.84
2016-07-14T10:50:55.738Z,94.64
2016-07-14T10:51:55.738Z,95.12
2016-07-14T10:52:55.733Z,95.12
2016-07-14T10:53:55.736Z,95.51
2016-07-14T10:54:55.742Z,95.94
2016-07-14T10:55:55.733Z,96.32
2016-07-14T10:56:56.429Z,95.94
2016-07-14T10:57:55.736Z,96.42
2016-07-14T10:58:55.732Z,96.8
2016-07-14T10:59:55.728Z,97.09
2016-07-14T11:00:55.724Z,97.09
2016-07-14T11:01:55.723Z,97.38
2016-07-14T11:02:55.722Z,97.42
2016-07-14T11:03:55.723Z,98.09
2016-07-14T11:04:55.715Z,98.38
2016-07-14T11:05:55.721Z,98.47
2016-07-14T11:06:55.718Z,98.47
2016-07-14T11:07:55.710Z,98.47
2016-07-14T11:08:55.711Z,98.76
2016-07-14T11:09:55.710Z,98.86
2016-07-14T11:10:55.712Z,98.95
2016-07-14T11:11:55.707Z,98.76
2016-07-14T11:12:55.705Z,99.52
2016-07-14T11:13:55.707Z,99.15
2016-07-14T11:15:55.702Z,99.15
2016-07-14T11:16:56.603Z,99.52
2016-07-14T11:17:56.099Z,99.48
2016-07-14T11:18:55.692Z,99.57
2016-07-14T11:19:55.696Z,99.48
2016-07-14T11:20:56.040Z,99.99
2016-07-14T11:21:55.690Z,99.76
2016-07-14T11:22:55.687Z,99.99
2016-07-14T11:23:57.039Z,99.99
2016-07-14T11:24:57.200Z,99.99
2016-07-14T11:25:55.832Z,99.99
2016-07-14T11:26:56.511Z,99.99
2016-07-14T11:27:57.062Z,99.99
2016-07-14T11:28:56.261Z,99.99
2016-07-14T11:29:55.673Z,99.99
2016-07-14T11:30:55.991Z,99.99
2016-07-14T11:31:55.985Z,99.99
2016-07-14T11:32:55.666Z,99.99
2016-07-14T11:33:55.678Z,99.99
2016-07-14T11:34:56.920Z,99.99
2016-07-14T11:35:56.350Z,99.99
2016-07-14T11:37:56.775Z,99.99
2016-07-14T11:38:56.210Z,99.99
2016-07-14T11:39:55.643Z,99.99
2016-07-14T11:40:55.647Z,99.99
2016-07-14T11:41:55.645Z,99.99
2016-07-14T11:42:55.643Z,99.99
2016-07-14T11:43:55.637Z,99.99
2016-07-14T11:44:55.635Z,99.99
2016-07-14T11:45:55.637Z,99.99
2016-07-14T11:46:55.634Z,99.99
2016-07-14T11:47:55.628Z,99.99
2016-07-14T11:48:55.632Z,99.99
2016-07-14T11:49:55.628Z,99.99
2016-07-14T11:50:55.619Z,99.99
2016-07-14T11:51:55.618Z,99.99
2016-07-14T11:52:55.618Z,99.99
2016-07-14T11:53:55.614Z,99.99
2016-07-14T11:54:55.613Z,99.99
2016-07-14T11:55:55.632Z,99.99
2016-07-14T11:56:55.613Z,99.99
2016-07-14T11:57:55.606Z,99.99
2016-07-14T11:58:55.608Z,99.99
2016-07-14T11:59:55.604Z,99.99
2016-07-14T12:00:55.596Z,99.99
2016-07-14T12:01:55.600Z,99.99
2016-07-14T12:02:55.595Z,99.99
2016-07-14T12:03:55.597Z,99.99
2016-07-14T12:04:55.589Z,99.99
2016-07-14T12:05:55.592Z,99.99
2016-07-14T12:06:55.585Z,99.99
2016-07-14T12:07:55.628Z,99.99
2016-07-14T12:08:55.584Z,99.99
2016-07-14T12:09:55.583Z,99.99
2016-07-14T12:10:55.576Z,99.99
2016-07-14T12:11:55.575Z,99.99
2016-07-14T12:12:55.576Z,99.99
2016-07-14T12:13:55.576Z,99.99
2016-07-14T12:14:55.568Z,99.99
2016-07-14T12:15:55.570Z,99.99
2016-07-14T12:16:55.566Z,99.99
2016-07-14T12:17:55.558Z,99.99
2016-07-14T12:18:55.564Z,99.99
2016-07-14T12:19:55.554Z,99.99
2016-07-14T12:20:55.558Z,99.99
2016-07-14T12:21:55.555Z,99.99
2016-07-14T12:22:55.552Z,99.99
2016-07-14T12:23:55.549Z,99.99
2016-07-14T12:24:55.544Z,99.99
2016-07-14T12:25:55.548Z,99.99
2016-07-14T12:26:55.538Z,99.99
2016-07-14T12:27:55.541Z,99.99
2016-07-14T12:28:55.538Z,99.99
2016-07-14T12:29:55.536Z,99.99
2016-07-14T12:30:55.535Z,99.99
2016-07-14T12:31:55.537Z,99.99
2016-07-14T12:32:55.978Z,99.99
2016-07-14T12:33:56.330Z,99.99
2016-07-14T12:34:55.921Z,99.99
2016-07-14T12:36:10.441Z,99.99
2016-07-14T12:36:56.074Z,99.99
2016-07-14T12:37:55.516Z,99.99
2016-07-14T12:38:55.514Z,99.99
2016-07-14T12:39:55.512Z,99.99
2016-07-14T12:40:55.516Z,99.99
2016-07-14T12:41:55.511Z,99.99
2016-07-14T12:43:11.694Z,99.99
2016-07-14T12:43:57.028Z,99.99
2016-07-14T12:44:57.123Z,99.99
2016-07-14T12:45:56.577Z,99.99
2016-07-14T12:46:56.621Z,99.99
2016-07-14T12:47:55.499Z,99.99
2016-07-14T12:48:55.869Z,99.99
2016-07-14T12:49:55.491Z,99.99
2016-07-14T12:50:55.492Z,99.99
2016-07-14T12:51:55.502Z,99.99
2016-07-14T12:52:56.472Z,99.99
2016-07-14T12:53:56.659Z,99.99
2016-07-14T12:54:56.596Z,99.99
2016-07-14T12:55:55.486Z,99.99
2016-07-14T12:56:55.482Z,99.99
2016-07-14T12:57:55.482Z,99.99
2016-07-14T12:58:55.675Z,99.99
2016-07-14T12:59:55.477Z,99.99
2016-07-14T13:00:55.501Z,99.99
2016-07-14T13:01:55.471Z,99.99
2016-07-14T13:02:55.468Z,99.99